sensor_id;sensor_type;location;lat;lon;timestamp;P1;durP1;ratioP1;P2;durP2;ratioP2
3329;SDS011;1677;49.576;10.990;2023-02-28T00:00:12;3.38;;;2.78;;
3329;SDS011;1677;49.576;10.990;2023-02-28T00:02:39;2.50;;;2.22;;
3329;SDS011;1677;49.576;10.990;2023-02-28T00:05:06;5.03;;;3.60;;
3329;SDS011;1677;49.576;10.990;2023-02-28T00:07:33;5.75;;;3.28;;
3329;SDS011;1677;49.576;10.990;2023-02-28T00:10:00;3.22;;;2.92;;
3329;SDS011;1677;49.576;10.990;2023-02-28T00:12:26;4.93;;;2.80;;
3329;SDS011;1677;49.576;10.990;2023-02-28T00:14:52;3.85;;;3.10;;
3329;SDS011;1677;49.576;10.990;2023-02-28T00:17:18;3.77;;;2.57;;
3329;SDS011;1677;49.576;10.990;2023-02-28T00:19:49;5.00;;;2.65;;
3329;SDS011;1677;49.576;10.990;2023-02-28T00:22:15;4.22;;;3.25;;
3329;SDS011;1677;49.576;10.990;2023-02-28T00:24:43;4.75;;;3.42;;
3329;SDS011;1677;49.576;10.990;2023-02-28T00:27:08;3.72;;;3.42;;
3329;SDS011;1677;49.576;10.990;2023-02-28T00:29:34;4.80;;;3.30;;
3329;SDS011;1677;49.576;10.990;2023-02-28T00:32:00;3.37;;;3.07;;
3329;SDS011;1677;49.576;10.990;2023-02-28T00:34:25;4.83;;;3.13;;
3329;SDS011;1677;49.576;10.990;2023-02-28T00:36:51;3.10;;;2.80;;
3329;SDS011;1677;49.576;10.990;2023-02-28T00:39:17;4.63;;;3.23;;
3329;SDS011;1677;49.576;10.990;2023-02-28T00:41:42;3.13;;;2.43;;
3329;SDS011;1677;49.576;10.990;2023-02-28T00:44:08;3.43;;;3.13;;
3329;SDS011;1677;49.576;10.990;2023-02-28T00:46:34;3.03;;;2.73;;
3329;SDS011;1677;49.576;10.990;2023-02-28T00:49:00;6.47;;;3.10;;
3329;SDS011;1677;49.576;10.990;2023-02-28T00:51:25;4.33;;;2.93;;
3329;SDS011;1677;49.576;10.990;2023-02-28T00:53:51;2.60;;;2.40;;
3329;SDS011;1677;49.576;10.990;2023-02-28T00:56:16;3.83;;;2.57;;
3329;SDS011;1677;49.576;10.990;2023-02-28T00:58:42;3.23;;;2.87;;
3329;SDS011;1677;49.576;10.990;2023-02-28T01:01:07;4.20;;;3.23;;
3329;SDS011;1677;49.576;10.990;2023-02-28T01:03:33;7.10;;;4.00;;
3329;SDS011;1677;49.576;10.990;2023-02-28T01:05:59;2.67;;;2.43;;
3329;SDS011;1677;49.576;10.990;2023-02-28T01:08:24;7.47;;;3.37;;
3329;SDS011;1677;49.576;10.990;2023-02-28T01:10:51;4.03;;;2.90;;
3329;SDS011;1677;49.576;10.990;2023-02-28T01:13:17;4.40;;;2.75;;
3329;SDS011;1677;49.576;10.990;2023-02-28T01:15:49;5.88;;;2.65;;
3329;SDS011;1677;49.576;10.990;2023-02-28T01:18:16;5.20;;;3.40;;
3329;SDS011;1677;49.576;10.990;2023-02-28T01:20:42;4.22;;;3.45;;
3329;SDS011;1677;49.576;10.990;2023-02-28T01:23:08;4.80;;;3.90;;
3329;SDS011;1677;49.576;10.990;2023-02-28T01:25:34;3.73;;;2.90;;
3329;SDS011;1677;49.576;10.990;2023-02-28T01:28:01;4.50;;;2.90;;
3329;SDS011;1677;49.576;10.990;2023-02-28T01:30:26;3.70;;;3.20;;
3329;SDS011;1677;49.576;10.990;2023-02-28T01:32:52;4.17;;;3.77;;
3329;SDS011;1677;49.576;10.990;2023-02-28T01:35:18;5.22;;;3.60;;
3329;SDS011;1677;49.576;10.990;2023-02-28T01:37:45;6.38;;;3.30;;
3329;SDS011;1677;49.576;10.990;2023-02-28T01:40:11;5.47;;;3.10;;
3329;SDS011;1677;49.576;10.990;2023-02-28T01:42:37;4.65;;;3.78;;
3329;SDS011;1677;49.576;10.990;2023-02-28T01:47:51;6.50;;;3.60;;
3329;SDS011;1677;49.576;10.990;2023-02-28T01:50:21;3.05;;;2.80;;
3329;SDS011;1677;49.576;10.990;2023-02-28T01:52:50;6.13;;;3.20;;
3329;SDS011;1677;49.576;10.990;2023-02-28T01:55:17;6.93;;;3.40;;
3329;SDS011;1677;49.576;10.990;2023-02-28T01:57:55;3.05;;;2.67;;
3329;SDS011;1677;49.576;10.990;2023-02-28T02:00:23;6.10;;;3.67;;
3329;SDS011;1677;49.576;10.990;2023-02-28T02:02:53;4.43;;;3.03;;
3329;SDS011;1677;49.576;10.990;2023-02-28T02:05:23;4.78;;;3.20;;
3329;SDS011;1677;49.576;10.990;2023-02-28T02:07:52;5.70;;;3.60;;
3329;SDS011;1677;49.576;10.990;2023-02-28T02:10:21;3.53;;;3.22;;
3329;SDS011;1677;49.576;10.990;2023-02-28T02:16:00;6.25;;;3.08;;
3329;SDS011;1677;49.576;10.990;2023-02-28T02:29:38;4.07;;;3.28;;
3329;SDS011;1677;49.576;10.990;2023-02-28T02:32:28;5.68;;;3.38;;
3329;SDS011;1677;49.576;10.990;2023-02-28T02:38:01;5.15;;;3.22;;
3329;SDS011;1677;49.576;10.990;2023-02-28T02:40:32;4.13;;;3.20;;
3329;SDS011;1677;49.576;10.990;2023-02-28T02:43:22;4.47;;;3.72;;
3329;SDS011;1677;49.576;10.990;2023-02-28T02:45:55;3.38;;;3.08;;
3329;SDS011;1677;49.576;10.990;2023-02-28T02:48:30;14.02;;;3.80;;
3329;SDS011;1677;49.576;10.990;2023-02-28T02:50:59;3.40;;;3.10;;
3329;SDS011;1677;49.576;10.990;2023-02-28T02:53:36;3.90;;;3.55;;
3329;SDS011;1677;49.576;10.990;2023-02-28T02:56:06;6.80;;;2.95;;
3329;SDS011;1677;49.576;10.990;2023-02-28T02:58:34;4.30;;;3.30;;
3329;SDS011;1677;49.576;10.990;2023-02-28T03:01:07;4.45;;;3.53;;
3329;SDS011;1677;49.576;10.990;2023-02-28T03:03:35;5.28;;;3.58;;
3329;SDS011;1677;49.576;10.990;2023-02-28T03:06:01;5.40;;;4.00;;
3329;SDS011;1677;49.576;10.990;2023-02-28T03:08:28;5.35;;;2.95;;
3329;SDS011;1677;49.576;10.990;2023-02-28T03:11:02;5.70;;;3.30;;
3329;SDS011;1677;49.576;10.990;2023-02-28T03:24:54;4.43;;;3.28;;
3329;SDS011;1677;49.576;10.990;2023-02-28T03:27:27;3.80;;;3.45;;
3329;SDS011;1677;49.576;10.990;2023-02-28T03:30:06;5.57;;;4.65;;
3329;SDS011;1677;49.576;10.990;2023-02-28T03:32:53;5.82;;;4.28;;
3329;SDS011;1677;49.576;10.990;2023-02-28T03:35:31;5.45;;;3.67;;
3329;SDS011;1677;49.576;10.990;2023-02-28T03:38:04;6.55;;;5.55;;
3329;SDS011;1677;49.576;10.990;2023-02-28T03:40:38;6.13;;;4.78;;
3329;SDS011;1677;49.576;10.990;2023-02-28T03:43:09;5.70;;;3.70;;
3329;SDS011;1677;49.576;10.990;2023-02-28T03:45:40;5.75;;;3.95;;
3329;SDS011;1677;49.576;10.990;2023-02-28T03:48:15;5.20;;;4.63;;
3329;SDS011;1677;49.576;10.990;2023-02-28T03:50:53;7.00;;;4.15;;
3329;SDS011;1677;49.576;10.990;2023-02-28T03:53:31;13.02;;;4.25;;
3329;SDS011;1677;49.576;10.990;2023-02-28T03:56:02;13.20;;;4.85;;
3329;SDS011;1677;49.576;10.990;2023-02-28T03:58:54;6.95;;;4.05;;
3329;SDS011;1677;49.576;10.990;2023-02-28T04:01:40;6.55;;;4.15;;
3329;SDS011;1677;49.576;10.990;2023-02-28T04:04:09;6.00;;;5.20;;
3329;SDS011;1677;49.576;10.990;2023-02-28T04:06:35;5.68;;;5.10;;
3329;SDS011;1677;49.576;10.990;2023-02-28T04:09:02;5.40;;;4.90;;
3329;SDS011;1677;49.576;10.990;2023-02-28T04:11:36;4.18;;;3.78;;
3329;SDS011;1677;49.576;10.990;2023-02-28T04:14:04;6.32;;;3.80;;
3329;SDS011;1677;49.576;10.990;2023-02-28T04:16:31;4.80;;;3.85;;
3329;SDS011;1677;49.576;10.990;2023-02-28T04:18:57;4.80;;;3.85;;
3329;SDS011;1677;49.576;10.990;2023-02-28T04:21:28;4.78;;;4.18;;
3329;SDS011;1677;49.576;10.990;2023-02-28T04:23:54;5.25;;;4.75;;
3329;SDS011;1677;49.576;10.990;2023-02-28T04:26:20;5.25;;;3.35;;
3329;SDS011;1677;49.576;10.990;2023-02-28T04:28:46;8.53;;;5.00;;
3329;SDS011;1677;49.576;10.990;2023-02-28T04:31:11;6.60;;;4.47;;
3329;SDS011;1677;49.576;10.990;2023-02-28T04:33:37;6.07;;;4.17;;
3329;SDS011;1677;49.576;10.990;2023-02-28T04:36:04;4.67;;;4.03;;
3329;SDS011;1677;49.576;10.990;2023-02-28T04:38:33;5.45;;;4.00;;
3329;SDS011;1677;49.576;10.990;2023-02-28T04:41:00;6.07;;;5.10;;
3329;SDS011;1677;49.576;10.990;2023-02-28T04:43:26;6.37;;;4.57;;
3329;SDS011;1677;49.576;10.990;2023-02-28T04:45:53;6.85;;;4.97;;
3329;SDS011;1677;49.576;10.990;2023-02-28T04:48:21;7.68;;;3.80;;
3329;SDS011;1677;49.576;10.990;2023-02-28T04:50:48;5.53;;;4.47;;
3329;SDS011;1677;49.576;10.990;2023-02-28T04:53:13;5.40;;;4.80;;
3329;SDS011;1677;49.576;10.990;2023-02-28T04:55:39;3.90;;;3.57;;
3329;SDS011;1677;49.576;10.990;2023-02-28T04:58:05;7.20;;;5.07;;
3329;SDS011;1677;49.576;10.990;2023-02-28T05:00:30;6.90;;;4.67;;
3329;SDS011;1677;49.576;10.990;2023-02-28T05:02:56;5.90;;;5.20;;
3329;SDS011;1677;49.576;10.990;2023-02-28T05:05:21;6.30;;;5.07;;
3329;SDS011;1677;49.576;10.990;2023-02-28T05:07:47;8.20;;;5.40;;
3329;SDS011;1677;49.576;10.990;2023-02-28T05:10:16;9.45;;;4.95;;
3329;SDS011;1677;49.576;10.990;2023-02-28T05:12:41;5.00;;;4.50;;
3329;SDS011;1677;49.576;10.990;2023-02-28T05:15:08;6.47;;;4.50;;
3329;SDS011;1677;49.576;10.990;2023-02-28T05:17:37;7.00;;;5.05;;
3329;SDS011;1677;49.576;10.990;2023-02-28T05:20:03;5.33;;;3.80;;
3329;SDS011;1677;49.576;10.990;2023-02-28T05:22:30;7.53;;;5.20;;
3329;SDS011;1677;49.576;10.990;2023-02-28T05:24:55;6.83;;;5.23;;
3329;SDS011;1677;49.576;10.990;2023-02-28T05:27:21;5.90;;;5.03;;
3329;SDS011;1677;49.576;10.990;2023-02-28T05:29:46;9.10;;;5.43;;
3329;SDS011;1677;49.576;10.990;2023-02-28T05:32:12;6.30;;;4.90;;
3329;SDS011;1677;49.576;10.990;2023-02-28T05:34:39;5.68;;;4.78;;
3329;SDS011;1677;49.576;10.990;2023-02-28T05:37:05;4.90;;;4.00;;
3329;SDS011;1677;49.576;10.990;2023-02-28T05:39:35;5.03;;;4.57;;
3329;SDS011;1677;49.576;10.990;2023-02-28T05:42:01;9.90;;;5.83;;
3329;SDS011;1677;49.576;10.990;2023-02-28T05:44:27;6.30;;;5.67;;
3329;SDS011;1677;49.576;10.990;2023-02-28T05:46:52;7.07;;;5.30;;
3329;SDS011;1677;49.576;10.990;2023-02-28T05:49:18;6.50;;;4.90;;
3329;SDS011;1677;49.576;10.990;2023-02-28T05:51:43;6.37;;;4.33;;
3329;SDS011;1677;49.576;10.990;2023-02-28T05:54:09;5.63;;;4.80;;
3329;SDS011;1677;49.576;10.990;2023-02-28T05:56:34;7.90;;;4.73;;
3329;SDS011;1677;49.576;10.990;2023-02-28T05:59:02;10.73;;;5.40;;
3329;SDS011;1677;49.576;10.990;2023-02-28T06:01:32;7.37;;;4.97;;
3329;SDS011;1677;49.576;10.990;2023-02-28T06:04:00;8.30;;;6.10;;
3329;SDS011;1677;49.576;10.990;2023-02-28T06:06:26;9.13;;;5.10;;
3329;SDS011;1677;49.576;10.990;2023-02-28T06:08:52;6.85;;;5.15;;
3329;SDS011;1677;49.576;10.990;2023-02-28T06:11:19;6.88;;;4.80;;
3329;SDS011;1677;49.576;10.990;2023-02-28T06:13:45;9.20;;;5.85;;
3329;SDS011;1677;49.576;10.990;2023-02-28T06:16:11;12.67;;;6.20;;
3329;SDS011;1677;49.576;10.990;2023-02-28T06:18:37;11.20;;;4.78;;
3329;SDS011;1677;49.576;10.990;2023-02-28T06:21:03;8.73;;;5.68;;
3329;SDS011;1677;49.576;10.990;2023-02-28T06:23:29;6.80;;;5.43;;
3329;SDS011;1677;49.576;10.990;2023-02-28T06:25:54;10.07;;;6.30;;
3329;SDS011;1677;49.576;10.990;2023-02-28T06:28:23;7.30;;;5.35;;
3329;SDS011;1677;49.576;10.990;2023-02-28T06:30:50;9.57;;;5.65;;
3329;SDS011;1677;49.576;10.990;2023-02-28T06:33:15;6.80;;;5.30;;
3329;SDS011;1677;49.576;10.990;2023-02-28T06:35:43;7.80;;;5.17;;
3329;SDS011;1677;49.576;10.990;2023-02-28T06:38:11;7.15;;;5.30;;
3329;SDS011;1677;49.576;10.990;2023-02-28T06:40:36;6.50;;;4.90;;
3329;SDS011;1677;49.576;10.990;2023-02-28T06:43:02;10.20;;;6.47;;
3329;SDS011;1677;49.576;10.990;2023-02-28T06:45:28;9.93;;;5.57;;
3329;SDS011;1677;49.576;10.990;2023-02-28T06:47:53;7.43;;;5.40;;
3329;SDS011;1677;49.576;10.990;2023-02-28T06:50:20;8.68;;;5.80;;
3329;SDS011;1677;49.576;10.990;2023-02-28T06:52:45;10.20;;;6.17;;
3329;SDS011;1677;49.576;10.990;2023-02-28T06:55:11;7.80;;;5.45;;
3329;SDS011;1677;49.576;10.990;2023-02-28T06:57:37;7.93;;;5.38;;
3329;SDS011;1677;49.576;10.990;2023-02-28T07:00:05;7.47;;;5.37;;
3329;SDS011;1677;49.576;10.990;2023-02-28T07:02:33;8.25;;;5.65;;
3329;SDS011;1677;49.576;10.990;2023-02-28T07:04:59;12.38;;;5.97;;
3329;SDS011;1677;49.576;10.990;2023-02-28T07:07:25;8.20;;;5.30;;
3329;SDS011;1677;49.576;10.990;2023-02-28T07:09:50;12.83;;;7.07;;
3329;SDS011;1677;49.576;10.990;2023-02-28T07:12:16;8.07;;;5.53;;
3329;SDS011;1677;49.576;10.990;2023-02-28T07:14:42;6.83;;;6.13;;
3329;SDS011;1677;49.576;10.990;2023-02-28T07:17:08;8.87;;;5.43;;
3329;SDS011;1677;49.576;10.990;2023-02-28T07:19:36;6.55;;;5.60;;
3329;SDS011;1677;49.576;10.990;2023-02-28T07:22:02;10.23;;;5.20;;
3329;SDS011;1677;49.576;10.990;2023-02-28T07:24:27;9.47;;;5.90;;
3329;SDS011;1677;49.576;10.990;2023-02-28T07:26:54;8.95;;;6.57;;
3329;SDS011;1677;49.576;10.990;2023-02-28T07:29:20;7.53;;;5.72;;
3329;SDS011;1677;49.576;10.990;2023-02-28T07:31:46;6.67;;;5.67;;
3329;SDS011;1677;49.576;10.990;2023-02-28T07:34:12;8.37;;;6.43;;
3329;SDS011;1677;49.576;10.990;2023-02-28T07:36:39;7.82;;;5.75;;
3329;SDS011;1677;49.576;10.990;2023-02-28T07:39:05;6.00;;;5.30;;
3329;SDS011;1677;49.576;10.990;2023-02-28T07:41:30;7.93;;;5.40;;
3329;SDS011;1677;49.576;10.990;2023-02-28T07:43:59;8.13;;;5.40;;
3329;SDS011;1677;49.576;10.990;2023-02-28T07:46:25;8.60;;;5.93;;
3329;SDS011;1677;49.576;10.990;2023-02-28T07:48:51;8.15;;;6.20;;
3329;SDS011;1677;49.576;10.990;2023-02-28T07:51:18;6.20;;;5.60;;
3329;SDS011;1677;49.576;10.990;2023-02-28T07:53:44;8.40;;;5.50;;
3329;SDS011;1677;49.576;10.990;2023-02-28T07:56:09;9.13;;;6.93;;
3329;SDS011;1677;49.576;10.990;2023-02-28T07:58:36;6.73;;;5.70;;
3329;SDS011;1677;49.576;10.990;2023-02-28T08:01:05;8.20;;;6.70;;
3329;SDS011;1677;49.576;10.990;2023-02-28T08:03:34;6.05;;;5.45;;
3329;SDS011;1677;49.576;10.990;2023-02-28T08:06:01;8.88;;;7.18;;
3329;SDS011;1677;49.576;10.990;2023-02-28T08:08:28;7.50;;;5.45;;
3329;SDS011;1677;49.576;10.990;2023-02-28T08:10:57;8.75;;;5.75;;
3329;SDS011;1677;49.576;10.990;2023-02-28T08:13:24;8.63;;;5.93;;
3329;SDS011;1677;49.576;10.990;2023-02-28T08:15:50;8.30;;;5.90;;
3329;SDS011;1677;49.576;10.990;2023-02-28T08:18:15;8.00;;;5.47;;
3329;SDS011;1677;49.576;10.990;2023-02-28T08:20:41;8.70;;;6.53;;
3329;SDS011;1677;49.576;10.990;2023-02-28T08:23:06;8.30;;;5.77;;
3329;SDS011;1677;49.576;10.990;2023-02-28T08:25:32;6.67;;;6.00;;
3329;SDS011;1677;49.576;10.990;2023-02-28T08:27:57;7.77;;;6.17;;
3329;SDS011;1677;49.576;10.990;2023-02-28T08:30:23;10.53;;;6.40;;
3329;SDS011;1677;49.576;10.990;2023-02-28T08:32:48;7.23;;;5.33;;
3329;SDS011;1677;49.576;10.990;2023-02-28T08:35:14;7.03;;;5.60;;
3329;SDS011;1677;49.576;10.990;2023-02-28T08:37:40;7.03;;;6.13;;
3329;SDS011;1677;49.576;10.990;2023-02-28T08:40:05;9.70;;;6.57;;
3329;SDS011;1677;49.576;10.990;2023-02-28T08:42:32;7.28;;;5.75;;
3329;SDS011;1677;49.576;10.990;2023-02-28T08:44:58;9.10;;;5.57;;
3329;SDS011;1677;49.576;10.990;2023-02-28T08:47:23;6.83;;;6.03;;
3329;SDS011;1677;49.576;10.990;2023-02-28T08:49:49;9.17;;;6.87;;
3329;SDS011;1677;49.576;10.990;2023-02-28T08:52:14;6.70;;;5.87;;
3329;SDS011;1677;49.576;10.990;2023-02-28T08:54:40;8.77;;;7.30;;
3329;SDS011;1677;49.576;10.990;2023-02-28T08:57:06;8.07;;;6.37;;
3329;SDS011;1677;49.576;10.990;2023-02-28T08:59:31;8.87;;;6.30;;
3329;SDS011;1677;49.576;10.990;2023-02-28T09:01:57;8.07;;;5.87;;
3329;SDS011;1677;49.576;10.990;2023-02-28T09:04:23;10.83;;;6.23;;
3329;SDS011;1677;49.576;10.990;2023-02-28T09:06:48;8.57;;;5.87;;
3329;SDS011;1677;49.576;10.990;2023-02-28T09:09:14;7.00;;;6.00;;
3329;SDS011;1677;49.576;10.990;2023-02-28T09:11:40;11.95;;;6.40;;
3329;SDS011;1677;49.576;10.990;2023-02-28T09:14:06;6.53;;;5.20;;
3329;SDS011;1677;49.576;10.990;2023-02-28T09:16:32;11.73;;;5.93;;
3329;SDS011;1677;49.576;10.990;2023-02-28T09:18:59;7.88;;;6.28;;
3329;SDS011;1677;49.576;10.990;2023-02-28T09:21:25;8.60;;;5.90;;
3329;SDS011;1677;49.576;10.990;2023-02-28T09:23:52;8.95;;;6.35;;
3329;SDS011;1677;49.576;10.990;2023-02-28T09:26:21;8.03;;;5.33;;
3329;SDS011;1677;49.576;10.990;2023-02-28T09:28:51;8.68;;;5.43;;
3329;SDS011;1677;49.576;10.990;2023-02-28T09:31:19;8.50;;;5.80;;
3329;SDS011;1677;49.576;10.990;2023-02-28T09:33:50;9.85;;;6.43;;
3329;SDS011;1677;49.576;10.990;2023-02-28T09:36:18;8.93;;;5.90;;
3329;SDS011;1677;49.576;10.990;2023-02-28T09:38:44;6.83;;;5.73;;
3329;SDS011;1677;49.576;10.990;2023-02-28T09:41:14;7.37;;;5.60;;
3329;SDS011;1677;49.576;10.990;2023-02-28T09:43:58;7.83;;;5.80;;
3329;SDS011;1677;49.576;10.990;2023-02-28T09:46:34;6.67;;;5.97;;
3329;SDS011;1677;49.576;10.990;2023-02-28T09:49:10;7.07;;;6.00;;
3329;SDS011;1677;49.576;10.990;2023-02-28T09:54:13;7.87;;;5.27;;
3329;SDS011;1677;49.576;10.990;2023-02-28T09:56:44;5.60;;;4.43;;
3329;SDS011;1677;49.576;10.990;2023-02-28T10:04:57;6.43;;;5.53;;
3329;SDS011;1677;49.576;10.990;2023-02-28T10:10:05;8.85;;;5.65;;
3329;SDS011;1677;49.576;10.990;2023-02-28T10:12:43;6.43;;;5.50;;
3329;SDS011;1677;49.576;10.990;2023-02-28T10:15:13;9.20;;;5.00;;
3329;SDS011;1677;49.576;10.990;2023-02-28T10:17:43;7.13;;;5.73;;
3329;SDS011;1677;49.576;10.990;2023-02-28T10:20:17;8.10;;;6.20;;
3329;SDS011;1677;49.576;10.990;2023-02-28T10:25:32;7.17;;;5.70;;
3329;SDS011;1677;49.576;10.990;2023-02-28T10:28:10;7.73;;;5.30;;
3329;SDS011;1677;49.576;10.990;2023-02-28T10:30:38;5.87;;;5.30;;
3329;SDS011;1677;49.576;10.990;2023-02-28T10:33:09;7.00;;;5.10;;
3329;SDS011;1677;49.576;10.990;2023-02-28T10:35:57;7.87;;;5.20;;
3329;SDS011;1677;49.576;10.990;2023-02-28T10:38:24;6.43;;;5.27;;
3329;SDS011;1677;49.576;10.990;2023-02-28T10:41:05;6.27;;;4.90;;
3329;SDS011;1677;49.576;10.990;2023-02-28T10:43:36;6.90;;;5.00;;
3329;SDS011;1677;49.576;10.990;2023-02-28T10:51:23;7.40;;;5.07;;
3329;SDS011;1677;49.576;10.990;2023-02-28T10:53:50;5.77;;;4.83;;
3329;SDS011;1677;49.576;10.990;2023-02-28T10:56:18;6.30;;;5.43;;
3329;SDS011;1677;49.576;10.990;2023-02-28T10:58:52;6.70;;;6.00;;
3329;SDS011;1677;49.576;10.990;2023-02-28T11:04:18;7.10;;;5.50;;
3329;SDS011;1677;49.576;10.990;2023-02-28T11:06:44;6.50;;;5.33;;
3329;SDS011;1677;49.576;10.990;2023-02-28T11:11:56;6.47;;;5.27;;
3329;SDS011;1677;49.576;10.990;2023-02-28T11:14:26;6.33;;;4.50;;
3329;SDS011;1677;49.576;10.990;2023-02-28T11:16:54;7.43;;;5.20;;
3329;SDS011;1677;49.576;10.990;2023-02-28T11:19:38;7.17;;;5.40;;
3329;SDS011;1677;49.576;10.990;2023-02-28T11:22:09;6.03;;;4.77;;
3329;SDS011;1677;49.576;10.990;2023-02-28T11:24:45;6.03;;;5.20;;
3329;SDS011;1677;49.576;10.990;2023-02-28T11:29:56;6.80;;;5.20;;
3329;SDS011;1677;49.576;10.990;2023-02-28T11:32:24;7.67;;;6.97;;
3329;SDS011;1677;49.576;10.990;2023-02-28T11:35:02;6.37;;;5.07;;
3329;SDS011;1677;49.576;10.990;2023-02-28T11:37:34;6.17;;;5.33;;
3329;SDS011;1677;49.576;10.990;2023-02-28T11:40:01;6.93;;;5.07;;
3329;SDS011;1677;49.576;10.990;2023-02-28T11:48:15;4.90;;;4.50;;
3329;SDS011;1677;49.576;10.990;2023-02-28T11:53:56;6.60;;;5.43;;
3329;SDS011;1677;49.576;10.990;2023-02-28T11:56:52;5.93;;;5.27;;
3329;SDS011;1677;49.576;10.990;2023-02-28T12:07:25;6.40;;;5.03;;
3329;SDS011;1677;49.576;10.990;2023-02-28T12:12:48;6.50;;;5.03;;
3329;SDS011;1677;49.576;10.990;2023-02-28T12:23:45;5.20;;;4.70;;
3329;SDS011;1677;49.576;10.990;2023-02-28T12:29:12;7.65;;;6.18;;
3329;SDS011;1677;49.576;10.990;2023-02-28T12:31:41;8.30;;;5.55;;
3329;SDS011;1677;49.576;10.990;2023-02-28T12:34:22;7.25;;;4.90;;
3329;SDS011;1677;49.576;10.990;2023-02-28T12:36:56;5.70;;;4.88;;
3329;SDS011;1677;49.576;10.990;2023-02-28T12:39:26;5.72;;;4.90;;
3329;SDS011;1677;49.576;10.990;2023-02-28T12:42:41;7.35;;;5.53;;
3329;SDS011;1677;49.576;10.990;2023-02-28T12:44:49;7.72;;;5.50;;
3329;SDS011;1677;49.576;10.990;2023-02-28T12:47:27;6.35;;;5.47;;
3329;SDS011;1677;49.576;10.990;2023-02-28T12:49:56;8.32;;;6.88;;
3329;SDS011;1677;49.576;10.990;2023-02-28T13:00:30;8.20;;;6.30;;
3329;SDS011;1677;49.576;10.990;2023-02-28T13:03:06;6.88;;;5.60;;
3329;SDS011;1677;49.576;10.990;2023-02-28T13:06:00;5.95;;;5.13;;
3329;SDS011;1677;49.576;10.990;2023-02-28T13:08:51;8.60;;;5.93;;
3329;SDS011;1677;49.576;10.990;2023-02-28T13:11:31;10.05;;;6.13;;
3329;SDS011;1677;49.576;10.990;2023-02-28T13:14:04;7.60;;;6.03;;
3329;SDS011;1677;49.576;10.990;2023-02-28T13:19:42;7.70;;;5.10;;
3329;SDS011;1677;49.576;10.990;2023-02-28T13:22:39;8.43;;;6.07;;
3329;SDS011;1677;49.576;10.990;2023-02-28T13:27:47;8.90;;;6.40;;
3329;SDS011;1677;49.576;10.990;2023-02-28T13:38:41;6.40;;;5.78;;
3329;SDS011;1677;49.576;10.990;2023-02-28T13:46:30;8.07;;;6.43;;
3329;SDS011;1677;49.576;10.990;2023-02-28T13:51:51;6.60;;;5.20;;
3329;SDS011;1677;49.576;10.990;2023-02-28T13:54:24;8.30;;;6.57;;
3329;SDS011;1677;49.576;10.990;2023-02-28T13:57:13;8.57;;;7.15;;
3329;SDS011;1677;49.576;10.990;2023-02-28T14:05:32;8.32;;;6.43;;
3329;SDS011;1677;49.576;10.990;2023-02-28T14:07:59;8.65;;;6.45;;
3329;SDS011;1677;49.576;10.990;2023-02-28T14:10:47;7.25;;;6.22;;
3329;SDS011;1677;49.576;10.990;2023-02-28T14:16:16;8.40;;;6.75;;
3329;SDS011;1677;49.576;10.990;2023-02-28T14:18:50;9.05;;;6.03;;
3329;SDS011;1677;49.576;10.990;2023-02-28T14:21:27;7.47;;;6.25;;
3329;SDS011;1677;49.576;10.990;2023-02-28T14:34:54;9.55;;;6.07;;
3329;SDS011;1677;49.576;10.990;2023-02-28T14:37:32;9.85;;;5.75;;
3329;SDS011;1677;49.576;10.990;2023-02-28T14:40:02;10.70;;;6.65;;
3329;SDS011;1677;49.576;10.990;2023-02-28T14:45:17;7.93;;;6.05;;
3329;SDS011;1677;49.576;10.990;2023-02-28T14:47:46;12.23;;;6.60;;
3329;SDS011;1677;49.576;10.990;2023-02-28T14:50:18;8.38;;;6.47;;
3329;SDS011;1677;49.576;10.990;2023-02-28T14:52:51;10.05;;;6.80;;
3329;SDS011;1677;49.576;10.990;2023-02-28T14:55:18;9.80;;;7.35;;
3329;SDS011;1677;49.576;10.990;2023-02-28T14:57:51;6.63;;;5.93;;
3329;SDS011;1677;49.576;10.990;2023-02-28T15:00:26;6.80;;;6.10;;
3329;SDS011;1677;49.576;10.990;2023-02-28T15:02:54;7.18;;;6.47;;
3329;SDS011;1677;49.576;10.990;2023-02-28T15:08:06;9.68;;;6.97;;
3329;SDS011;1677;49.576;10.990;2023-02-28T15:13:43;10.32;;;6.88;;
3329;SDS011;1677;49.576;10.990;2023-02-28T15:16:18;9.80;;;6.90;;
3329;SDS011;1677;49.576;10.990;2023-02-28T15:19:00;10.07;;;6.65;;
3329;SDS011;1677;49.576;10.990;2023-02-28T15:21:39;9.43;;;6.57;;
3329;SDS011;1677;49.576;10.990;2023-02-28T15:26:38;9.57;;;7.13;;
3329;SDS011;1677;49.576;10.990;2023-02-28T15:29:06;10.05;;;7.00;;
3329;SDS011;1677;49.576;10.990;2023-02-28T15:31:44;9.70;;;7.22;;
3329;SDS011;1677;49.576;10.990;2023-02-28T15:34:47;9.32;;;6.80;;
3329;SDS011;1677;49.576;10.990;2023-02-28T15:39:51;10.20;;;7.38;;
3329;SDS011;1677;49.576;10.990;2023-02-28T15:42:19;9.50;;;6.60;;
3329;SDS011;1677;49.576;10.990;2023-02-28T15:44:46;8.82;;;6.43;;
3329;SDS011;1677;49.576;10.990;2023-02-28T15:47:15;8.98;;;6.72;;
3329;SDS011;1677;49.576;10.990;2023-02-28T15:49:52;6.97;;;5.80;;
3329;SDS011;1677;49.576;10.990;2023-02-28T15:52:21;9.88;;;7.57;;
3329;SDS011;1677;49.576;10.990;2023-02-28T15:54:57;8.70;;;6.60;;
3329;SDS011;1677;49.576;10.990;2023-02-28T15:57:28;10.85;;;7.18;;
3329;SDS011;1677;49.576;10.990;2023-02-28T15:59:55;6.95;;;6.15;;
3329;SDS011;1677;49.576;10.990;2023-02-28T16:02:34;8.88;;;6.25;;
3329;SDS011;1677;49.576;10.990;2023-02-28T16:07:34;8.35;;;6.82;;
3329;SDS011;1677;49.576;10.990;2023-02-28T16:10:05;11.38;;;7.20;;
3329;SDS011;1677;49.576;10.990;2023-02-28T16:12:33;8.32;;;6.65;;
3329;SDS011;1677;49.576;10.990;2023-02-28T16:15:00;9.10;;;6.57;;
3329;SDS011;1677;49.576;10.990;2023-02-28T16:17:32;9.57;;;6.43;;
3329;SDS011;1677;49.576;10.990;2023-02-28T16:19:59;11.45;;;7.55;;
3329;SDS011;1677;49.576;10.990;2023-02-28T16:22:25;9.60;;;7.40;;
3329;SDS011;1677;49.576;10.990;2023-02-28T16:24:51;9.77;;;7.77;;
3329;SDS011;1677;49.576;10.990;2023-02-28T16:27:18;13.37;;;7.77;;
3329;SDS011;1677;49.576;10.990;2023-02-28T16:29:49;8.50;;;7.03;;
3329;SDS011;1677;49.576;10.990;2023-02-28T16:32:15;9.43;;;7.87;;
3329;SDS011;1677;49.576;10.990;2023-02-28T16:34:42;11.50;;;8.13;;
3329;SDS011;1677;49.576;10.990;2023-02-28T16:37:12;11.13;;;7.18;;
3329;SDS011;1677;49.576;10.990;2023-02-28T16:39:40;15.25;;;7.50;;
3329;SDS011;1677;49.576;10.990;2023-02-28T16:42:06;10.63;;;7.15;;
3329;SDS011;1677;49.576;10.990;2023-02-28T16:44:33;10.25;;;7.05;;
3329;SDS011;1677;49.576;10.990;2023-02-28T16:47:00;12.30;;;8.30;;
3329;SDS011;1677;49.576;10.990;2023-02-28T16:49:27;10.23;;;7.30;;
3329;SDS011;1677;49.576;10.990;2023-02-28T16:51:53;9.00;;;7.23;;
3329;SDS011;1677;49.576;10.990;2023-02-28T16:54:18;13.10;;;7.67;;
3329;SDS011;1677;49.576;10.990;2023-02-28T16:56:44;11.13;;;7.57;;
3329;SDS011;1677;49.576;10.990;2023-02-28T16:59:11;10.77;;;7.45;;
3329;SDS011;1677;49.576;10.990;2023-02-28T17:01:38;10.27;;;7.78;;
3329;SDS011;1677;49.576;10.990;2023-02-28T17:04:04;13.13;;;10.67;;
3329;SDS011;1677;49.576;10.990;2023-02-28T17:06:30;11.95;;;7.25;;
3329;SDS011;1677;49.576;10.990;2023-02-28T17:08:56;12.53;;;7.83;;
3329;SDS011;1677;49.576;10.990;2023-02-28T17:11:23;11.90;;;8.35;;
3329;SDS011;1677;49.576;10.990;2023-02-28T17:13:50;10.40;;;8.18;;
3329;SDS011;1677;49.576;10.990;2023-02-28T17:18:51;10.10;;;8.32;;
3329;SDS011;1677;49.576;10.990;2023-02-28T17:21:19;13.40;;;9.60;;
3329;SDS011;1677;49.576;10.990;2023-02-28T17:23:44;14.77;;;7.70;;
3329;SDS011;1677;49.576;10.990;2023-02-28T17:26:14;13.60;;;7.77;;
3329;SDS011;1677;49.576;10.990;2023-02-28T17:28:42;10.88;;;7.78;;
3329;SDS011;1677;49.576;10.990;2023-02-28T17:31:08;10.35;;;6.80;;
3329;SDS011;1677;49.576;10.990;2023-02-28T17:33:34;9.57;;;7.07;;
3329;SDS011;1677;49.576;10.990;2023-02-28T17:36:00;10.20;;;7.30;;
3329;SDS011;1677;49.576;10.990;2023-02-28T17:38:26;9.60;;;7.60;;
3329;SDS011;1677;49.576;10.990;2023-02-28T17:40:52;13.87;;;10.40;;
3329;SDS011;1677;49.576;10.990;2023-02-28T17:43:22;10.40;;;8.02;;
3329;SDS011;1677;49.576;10.990;2023-02-28T17:45:51;8.48;;;7.68;;
3329;SDS011;1677;49.576;10.990;2023-02-28T17:48:17;8.40;;;7.20;;
3329;SDS011;1677;49.576;10.990;2023-02-28T17:50:42;13.97;;;7.90;;